Flight Track Log - Related Links

Times and Time Zones

All times are in EDT time to prevent confusion due to time zone crossing. See the SWA3028 flight status page for this flight to view local times or setup timezone preferences in your user account.

Time Position Orientation Groundspeed Altitude Reporting Facility
EDT Latitude Longitude Course Direction KTS MPH feet Rate Location/Type
Wed 08:35:33 AM 41.7833 -87.7833 37° Northeast 175 201 2,700  Level Chicago TRACON
Wed 08:36:27 AM 41.8167 -87.7500 37° Northeast 247 284 4,800 1,211 Climbing Chicago TRACON
Wed 08:37:27 AM 41.8167 -87.6333 90° East 283 326 5,000 125 Climbing Chicago TRACON
Wed 08:38:03 AM 41.8281 -87.5914 70° East 266 306 5,000 429 Level Chicago Center
Wed 08:39:05 AM 41.8242 -87.4869 93° East 277 319 5,700 3,145 Climbing Chicago Center
Wed 08:40:07 AM 41.8069 -87.3639 101° East 281 323 11,500 4,694 Climbing Chicago Center
Wed 08:41:09 AM 41.7922 -87.2594 101° East 283 326 15,400 3,512 Climbing Chicago Center
Wed 08:42:10 AM 41.7928 -87.1408 90° East 321 369 18,700 1,756 Climbing Chicago Center
Wed 08:43:12 AM 41.8442 -87.0350 57° Northeast 337 388 19,000 919 Climbing Chicago Center
Wed 08:44:14 AM 41.8989 -86.9283 55° Northeast 346 398 20,600 1,935 Climbing Chicago Center
Wed 08:45:16 AM 41.9400 -86.8106 65° Northeast 353 406 23,000 1,902 Climbing Chicago Center
Wed 08:46:17 AM 41.9281 -86.6508 96° East 401 461 24,500 1,951 Climbing Chicago Center
Wed 08:47:19 AM 41.9192 -86.4978 94° East 408 470 27,000 1,210 Climbing Chicago Center
Wed 08:48:21 AM 41.9089 -86.3417 95° East 420 483 27,000 1,317 Level Chicago Center
Wed 08:49:22 AM 41.8981 -86.1500 94° East 429 494 29,700 2,341 Climbing Chicago Center
Wed 08:50:24 AM 41.8872 -85.9847 95° East 440 506 31,800 1,742 Climbing Chicago Center
Wed 08:51:26 AM 41.8761 -85.8169 95° East 449 517 33,300 1,171 Climbing Chicago Center
Wed 08:52:27 AM 41.8661 -85.6514 95° East 445 512 34,200 829 Climbing Chicago Center
Wed 08:53:29 AM 41.8561 -85.4878 95° East 437 503 35,000 823 Climbing Chicago Center
Wed 08:54:31 AM 41.8453 -85.3211 95° East 441 507 35,900 1,306 Climbing Chicago Center
Wed 08:55:33 AM 41.8319 -85.1575 96° East 438 504 37,700 1,721 Climbing Chicago Center
Wed 08:56:33 AM 41.8231 -84.9892 94° East 445 512 39,400 1,650 Climbing Cleveland Center
Wed 08:57:33 AM 41.8103 -84.8294 96° East 440 506 41,000 800 Climbing Cleveland Center
Wed 08:58:33 AM 41.7994 -84.6697 95° East 434 499 41,000  Level Cleveland Center
Wed 08:59:33 AM 41.7883 -84.5158 95° East 427 491 41,000 -450 Level Cleveland Center
Wed 09:00:33 AM 41.7789 -84.3564 94° East 427 491 40,100 -950 Descending Cleveland Center
Wed 09:01:33 AM 41.7742 -84.1836 92° East 427 491 39,100 -550 Descending Cleveland Center
Wed 09:02:33 AM 41.7728 -84.0219 91° East 427 491 39,000 -50 Descending Cleveland Center
Wed 09:03:33 AM 41.7733 -83.8603 90° East 427 491 39,000  Level Cleveland Center
Wed 09:04:33 AM 41.7697 -83.6986 92° East 427 491 39,000  Level Cleveland Center
Wed 09:05:33 AM 41.7656 -83.5397 92° East 427 491 39,000  Level Cleveland Center
Wed 09:06:33 AM 41.7528 -83.3806 96° East 422 486 39,000  Level Cleveland Center
Wed 09:07:33 AM 41.7358 -83.2211 98° East 429 494 39,000  Level Cleveland Center
Wed 09:08:33 AM 41.7206 -83.0619 97° East 429 494 39,000  Level Cleveland Center
Wed 09:09:33 AM 41.7031 -82.9000 98° East 429 494 39,000  Level Cleveland Center
Wed 09:10:33 AM 41.6872 -82.7547 98° East 434 499 39,000  Level Cleveland Center
Wed 09:11:33 AM 41.6714 -82.5875 97° East 439 505 39,000  Level Cleveland Center
Wed 09:12:33 AM 41.6553 -82.4256 98° East 439 505 39,000  Level Cleveland Center
Wed 09:13:33 AM 41.6392 -82.2531 97° East 439 505 39,000  Level Cleveland Center
Wed 09:14:33 AM 41.6206 -82.0914 99° East 434 499 39,000  Level Cleveland Center
Wed 09:15:33 AM 41.6061 -81.9328 97° East 429 494 39,000  Level Cleveland Center
Wed 09:16:33 AM 41.5892 -81.7686 98° East 429 494 39,000  Level Cleveland Center
Wed 09:17:33 AM 41.5697 -81.6100 99° East 429 494 39,000  Level Cleveland Center
Wed 09:18:33 AM 41.5522 -81.4683 99° East 429 494 39,000  Level Cleveland Center
Wed 09:19:33 AM 41.5344 -81.3072 98° East 429 494 39,000  Level Cleveland Center
Wed 09:20:33 AM 41.5019 -81.1486 105° East 429 494 39,000  Level Cleveland Center
Wed 09:21:33 AM 41.4131 -81.0122 131° Southeast 424 488 39,000  Level Cleveland Center
Wed 09:22:33 AM 41.3239 -80.8956 135° Southeast 441 507 39,000  Level Cleveland Center
Wed 09:23:33 AM 41.2364 -80.7736 134° Southeast 452 520 39,000  Level Cleveland Center
Wed 09:24:33 AM 41.1492 -80.6547 134° Southeast 452 520 39,000  Level Cleveland Center
Wed 09:25:33 AM 41.0742 -80.5472 133° Southeast 447 514 39,000  Level Cleveland Center
Wed 09:26:33 AM 40.9883 -80.4292 134° Southeast 447 514 39,000  Level Cleveland Center
Wed 09:27:33 AM 40.9006 -80.3111 135° Southeast 447 514 39,000  Level Cleveland Center
Wed 09:28:33 AM 40.8044 -80.1828 135° Southeast 447 514 39,000  Level Cleveland Center
Wed 09:29:33 AM 40.7228 -80.0817 137° Southeast 447 514 39,000  Level Cleveland Center
Wed 09:30:33 AM 40.6347 -79.9675 135° Southeast 436 502 39,000  Level Cleveland Center
Wed 09:31:33 AM 40.5486 -79.8564 136° Southeast 436 502 39,000 -400 Level Cleveland Center
Wed 09:32:33 AM 40.4581 -79.7481 138° Southeast 436 502 38,200 -500 Descending Cleveland Center
Wed 09:33:33 AM 40.3697 -79.6319 135° Southeast 436 502 38,000 -100 Descending Cleveland Center
Wed 09:34:33 AM 40.2914 -79.5133 131° Southeast 436 502 38,000  Level Cleveland Center
Wed 09:35:33 AM 40.2919 -79.3608 90° East 390 449 38,000  Level Cleveland Center
Wed 09:36:33 AM 40.2986 -79.2056 87° East 405 466 38,000  Level Cleveland Center
Wed 09:37:33 AM 40.3072 -79.0558 86° East 405 466 38,000  Level Cleveland Center
Wed 09:38:33 AM 40.3153 -78.9031 86° East 410 472 38,000  Level Cleveland Center
Wed 09:39:33 AM 40.3172 -78.7478 89° East 415 478 38,000 -150 Level Cleveland Center
Wed 09:40:33 AM 40.3189 -78.5953 89° East 420 483 37,700 -1,988 Descending Cleveland Center
Wed 09:42:16 AM 40.3164 -78.3147 91° East 424 488 32,600 -3,220 Descending New York Center
Wed 09:43:17 AM 40.3139 -78.1567 91° East 424 488 28,900 -2,951 Descending New York Center
Wed 09:44:18 AM 40.3133 -77.9986 90° East 429 494 26,600 -1,934 Descending New York Center
Wed 09:45:18 AM 40.3125 -77.8406 90° East 429 494 25,000 -814 Descending New York Center
Wed 09:46:16 AM 40.3050 -77.6844 94° East 429 494 25,000  Level New York Center
Wed 09:47:17 AM 40.2839 -77.5464 101° East 429 494 25,000  Level New York Center
Wed 09:48:18 AM 40.2625 -77.3728 99° East 435 501 25,000 -595 Level New York Center
Wed 09:49:18 AM 40.2431 -77.2322 100° East 430 495 23,800 -2,050 Descending New York Center
Wed 09:50:18 AM 40.2261 -77.0839 98° East 430 495 20,900 -2,898 Descending New York Center
Wed 09:51:16 AM 40.2064 -76.9406 100° East 409 471 18,100 -1,678 Descending New York Center
Wed 09:52:16 AM 40.1886 -76.8006 99° East 393 452 17,600 -793 Descending New York Center
Wed 09:53:17 AM 40.1692 -76.6519 100° East 383 441 16,500 -1,100 Descending New York Center
Wed 09:54:16 AM 40.1522 -76.5283 100° East 363 418 15,400 -1,050 Descending New York Center
Wed 09:55:17 AM 40.1372 -76.4103 99° East 343 395 14,400 -1,230 Descending New York Center
Wed 09:56:18 AM 40.1231 -76.3114 101° East 316 364 12,900 -1,190 Descending New York Center
Wed 09:57:18 AM 40.1139 -76.1967 96° East 294 338 12,000 -458 Descending New York Center
Wed 09:58:16 AM 40.1061 -76.0903 95° East 294 338 12,000 -102 Level New York Center
Wed 09:59:16 AM 40.1003 -75.9867 94° East 294 338 11,800 -836 Descending New York Center
Wed 10:00:18 AM 40.0917 -75.8964 97° East 294 338 10,300 -1,230 Descending New York Center
Wed 10:01:18 AM 40.0839 -75.7900 95° East 274 315 9,300 -966 Descending New York Center
Wed 10:02:16 AM 40.0772 -75.7028 96° East 268 308 8,400 -1,008 Descending New York Center
Wed 10:03:17 AM 40.0711 -75.5939 94° East 273 314 7,300 -984 Descending New York Center
Wed 10:04:18 AM 40.0683 -75.5094 92° East 273 314 6,400 -655 Descending New York Center
Wed 10:05:16 AM 40.0450 -75.4183 108° East 254 292 6,000 -153 Descending New York Center
Wed 10:06:16 AM 39.9933 -75.4014 166° South 207 238 6,100  Climbing New York Center
Wed 10:07:17 AM 39.9347 -75.4111 187° South 198 228 6,000 -397 Descending New York Center
Wed 10:08:17 AM 39.9131 -75.4828 249° West 184 212 5,300 -744 Descending New York Center
Wed 10:09:18 AM 39.8933 -75.5600 252° West 207 238 4,500 -605 Descending New York Center
Wed 10:10:16 AM 39.8536 -75.6111 225° Southwest 216 249 4,100 -265 Descending New York Center
Wed 10:11:11 AM 39.8167 -75.5833 150° Southeast 189 217 4,000 -209 Descending Philadelphia TRACON
Wed 10:12:11 AM 39.8167 -75.5167 90° East 191 220 3,700 -600 Descending Philadelphia TRACON
Wed 10:13:11 AM 39.8333 -75.4500 72° East 177 204 2,800 -893 Descending Philadelphia TRACON
Wed 10:14:12 AM 39.8333 -75.3833 90° East 155 178 1,900 -843 Descending Philadelphia TRACON
Wed 10:15:12 AM 39.8500 -75.3500 57° Northeast 122 140 1,100 -700 Descending Philadelphia TRACON
Wed 10:16:12 AM 39.8500 -75.3000 90° East 114 131 500 -600 Descending Philadelphia TRACON
Wed 10:18:00 AM 39.8667 -75.2333 90° East  Level FlightAware Approximate
Wed 10:25:00 AM 39.8722 -75.2409 90° East  Level Estimated

Login

Don't have an account? Register now (free) for customized features, flight alerts, and more!